createdAt,value
2017-10-28T00:06:00.902Z,81.25
2017-10-28T00:12:04.639Z,80.48
2017-10-28T00:18:08.185Z,81.34
2017-10-28T00:24:11.860Z,83.18
2017-10-28T00:30:21.599Z,85.09
2017-10-28T00:36:25.204Z,87.44
2017-10-28T00:42:28.677Z,88.24
2017-10-28T00:48:32.158Z,88.99
2017-10-28T00:54:35.771Z,89.14
2017-10-28T01:00:39.297Z,88.54
2017-10-28T01:06:44.301Z,88.62
2017-10-28T01:12:47.924Z,87.85
2017-10-28T01:18:51.416Z,87.72
2017-10-28T01:24:54.934Z,87.04
2017-10-28T01:30:58.407Z,86.26
2017-10-28T01:37:02.789Z,86.23
2017-10-28T01:43:07.094Z,85.20
2017-10-28T01:49:10.539Z,84.42
2017-10-28T01:55:15.382Z,82.92
2017-10-28T02:01:19.104Z,83.40
2017-10-28T02:07:22.592Z,84.03
2017-10-28T02:13:26.356Z,87.82
2017-10-28T02:19:30.126Z,89.06
2017-10-28T02:25:33.584Z,89.42
2017-10-28T02:31:37.839Z,89.01
2017-10-28T02:37:41.493Z,88.28
2017-10-28T02:43:45.895Z,88.71
2017-10-28T02:49:50.207Z,89.51
2017-10-28T02:55:53.759Z,88.79
2017-10-28T03:01:57.357Z,89.42
2017-10-28T03:08:01.601Z,90.38
2017-10-28T03:14:05.054Z,90.76
2017-10-28T03:20:08.527Z,91.25
2017-10-28T03:26:12.052Z,91.24
2017-10-28T03:32:15.982Z,89.65
2017-10-28T03:38:19.901Z,88.93
2017-10-28T03:44:23.369Z,88.05
2017-10-28T03:50:26.972Z,87.16
2017-10-28T03:56:31.280Z,87.71
2017-10-28T04:02:34.879Z,87.67
2017-10-28T04:08:39.208Z,87.01
2017-10-28T04:14:42.682Z,86.43
2017-10-28T04:20:46.249Z,85.88
2017-10-28T04:26:49.713Z,86.10
2017-10-28T04:32:53.937Z,85.54
2017-10-28T04:38:57.408Z,85.37
2017-10-28T04:45:00.881Z,84.20
2017-10-28T04:51:05.128Z,83.53
2017-10-28T04:57:08.607Z,83.13
2017-10-28T05:03:12.838Z,82.36
2017-10-28T05:09:17.105Z,79.97
2017-10-28T05:15:20.569Z,79.20
2017-10-28T05:21:24.054Z,78.29
2017-10-28T05:27:28.712Z,77.62
2017-10-28T05:33:32.166Z,77.37
2017-10-28T05:39:35.609Z,76.58
2017-10-28T05:45:39.041Z,77.37
2017-10-28T05:51:42.558Z,77.24
2017-10-28T05:57:46.291Z,77.75
2017-10-28T06:03:49.785Z,78.23
2017-10-28T06:09:53.265Z,78.24
2017-10-28T06:15:56.707Z,78.08
2017-10-28T06:22:00.504Z,77.15
2017-10-28T06:28:03.976Z,77.18
2017-10-28T06:34:08.299Z,76.72
2017-10-28T06:40:11.800Z,76.18
2017-10-28T06:46:15.856Z,76.31
2017-10-28T06:52:19.493Z,76.28
2017-10-28T06:58:22.962Z,76.81
2017-10-28T07:04:27.238Z,76.14
2017-10-28T07:10:30.695Z,76.40
2017-10-28T07:16:34.897Z,76.30
2017-10-28T07:22:39.144Z,76.02
2017-10-28T07:28:42.590Z,75.97
2017-10-28T07:34:46.068Z,76.31
2017-10-28T07:40:50.418Z,75.39
2017-10-28T07:46:53.973Z,76.12
2017-10-28T07:52:57.429Z,75.98
2017-10-28T07:59:00.918Z,75.80
2017-10-28T08:05:04.386Z,75.31
2017-10-28T08:11:07.847Z,75.32
2017-10-28T08:17:11.377Z,75.73
2017-10-28T08:23:16.123Z,75.75
2017-10-28T08:29:20.690Z,75.34
2017-10-28T08:35:24.196Z,75.34
2017-10-28T08:41:27.808Z,75.96
2017-10-28T08:47:31.271Z,75.83
2017-10-28T08:53:34.745Z,75.27
2017-10-28T08:59:38.341Z,75.70
2017-10-28T09:05:41.970Z,75.74
2017-10-28T09:11:46.480Z,75.63
2017-10-28T09:17:49.998Z,75.29
2017-10-28T09:23:53.529Z,74.79
2017-10-28T09:29:57.811Z,74.42
2017-10-28T09:36:02.028Z,74.79
2017-10-28T09:42:05.614Z,74.36
2017-10-28T09:48:09.150Z,74.51
2017-10-28T09:54:12.659Z,73.58
2017-10-28T10:00:17.307Z,73.12
2017-10-28T10:06:20.899Z,73.17
2017-10-28T10:12:25.216Z,73.27
2017-10-28T10:18:28.943Z,73.49
2017-10-28T10:24:32.550Z,71.91
2017-10-28T10:30:36.017Z,72.76
2017-10-28T10:36:39.650Z,72.61
2017-10-28T10:42:43.682Z,72.14
2017-10-28T10:48:47.577Z,72.39
2017-10-28T10:54:51.455Z,72.36
2017-10-28T11:00:54.938Z,71.75
2017-10-28T11:06:59.380Z,72.36
2017-10-28T11:13:02.840Z,71.94
2017-10-28T11:19:06.448Z,70.96
2017-10-28T11:25:09.915Z,69.55
2017-10-28T11:31:13.532Z,69.88
2017-10-28T11:37:18.307Z,70.40
2017-10-28T11:43:22.566Z,69.84
2017-10-28T11:49:26.057Z,69.71
2017-10-28T11:55:29.523Z,71.28
2017-10-28T12:01:33.804Z,71.23
2017-10-28T12:07:37.582Z,71.15
2017-10-28T12:13:41.067Z,70.33
2017-10-28T12:19:45.322Z,70.58
2017-10-28T12:25:49.261Z,71.37
2017-10-28T12:31:52.743Z,70.88
2017-10-28T12:37:56.201Z,70.74
2017-10-28T12:43:59.669Z,71.15
2017-10-28T12:50:04.238Z,70.89
2017-10-28T12:56:07.989Z,71.17
2017-10-28T13:02:11.459Z,70.90
2017-10-28T13:08:16.050Z,71.42
2017-10-28T13:14:20.269Z,71.44
2017-10-28T13:20:23.804Z,71.77
2017-10-28T13:26:27.693Z,71.82
2017-10-28T13:32:31.210Z,71.06
2017-10-28T13:38:35.026Z,71.58
2017-10-28T13:44:38.503Z,71.20
2017-10-28T13:50:43.067Z,71.45
2017-10-28T13:56:47.238Z,71.78
2017-10-28T14:02:51.517Z,71.85
2017-10-28T14:08:55.760Z,72.34
2017-10-28T14:15:00.005Z,72.38
2017-10-28T14:21:03.529Z,72.42
2017-10-28T14:27:07.780Z,72.50
2017-10-28T14:33:12.053Z,72.48
2017-10-28T14:39:16.437Z,72.33
2017-10-28T14:45:21.035Z,73.02
2017-10-28T14:51:24.695Z,73.49
2017-10-28T14:57:28.191Z,72.81
2017-10-28T15:03:31.737Z,72.71
2017-10-28T15:09:35.222Z,73.27
2017-10-28T15:15:38.825Z,73.31
2017-10-28T15:21:42.600Z,73.53
2017-10-28T15:27:46.598Z,73.53
2017-10-28T15:33:50.149Z,73.56
2017-10-28T15:39:53.722Z,73.75
2017-10-28T15:45:57.232Z,73.94
2017-10-28T15:52:01.528Z,73.28
2017-10-28T15:58:05.006Z,73.92
2017-10-28T16:04:09.277Z,73.91
2017-10-28T16:10:14.228Z,73.84
2017-10-28T16:16:17.753Z,74.27
2017-10-28T16:22:21.266Z,74.47
2017-10-28T16:28:25.164Z,74.60
2017-10-28T16:34:28.920Z,74.32
2017-10-28T16:40:32.387Z,74.80
2017-10-28T16:46:35.895Z,74.21
2017-10-28T16:52:39.415Z,74.94
2017-10-28T16:58:43.086Z,74.43
2017-10-28T17:04:47.166Z,74.98
2017-10-28T17:10:50.839Z,75.66
2017-10-28T17:16:55.537Z,76.70
2017-10-28T17:22:59.046Z,77.29
2017-10-28T17:29:02.534Z,78.11
2017-10-28T17:35:06.794Z,78.80
2017-10-28T17:41:10.657Z,79.58
2017-10-28T17:47:15.860Z,80.80
2017-10-28T17:53:20.123Z,81.24
2017-10-28T17:59:24.017Z,81.73
2017-10-28T18:05:27.550Z,82.00
2017-10-28T18:11:31.801Z,82.35
2017-10-28T18:17:35.579Z,82.66
2017-10-28T18:23:39.893Z,83.30
2017-10-28T18:29:43.746Z,83.77
2017-10-28T18:35:47.546Z,84.28
2017-10-28T18:41:51.033Z,84.95
2017-10-28T18:47:55.286Z,85.48
2017-10-28T18:53:58.852Z,85.75
2017-10-28T19:00:02.358Z,86.11
2017-10-28T19:06:05.854Z,86.15
2017-10-28T19:12:09.361Z,86.19
2017-10-28T19:18:12.843Z,85.89
2017-10-28T19:24:18.288Z,86.29
2017-10-28T19:30:22.961Z,87.14
2017-10-28T19:36:27.204Z,87.94
2017-10-28T19:42:31.475Z,88.99
2017-10-28T19:48:35.141Z,89.52
2017-10-28T19:54:38.605Z,90.02
2017-10-28T20:00:43.031Z,89.98
2017-10-28T20:06:47.474Z,90.26
2017-10-28T20:12:51.342Z,90.34
2017-10-28T20:18:54.819Z,90.55
2017-10-28T20:24:58.324Z,90.26
2017-10-28T20:31:01.906Z,90.52
2017-10-28T20:37:05.870Z,90.33
2017-10-28T20:43:10.132Z,90.48
2017-10-28T20:49:15.403Z,90.20
2017-10-28T20:55:20.603Z,89.79
2017-10-28T21:01:24.154Z,88.37
2017-10-28T21:07:27.671Z,87.47
2017-10-28T21:13:31.507Z,87.19
2017-10-28T21:19:35.100Z,86.76
2017-10-28T21:25:38.842Z,87.17
2017-10-28T21:31:42.331Z,86.88
2017-10-28T21:37:47.419Z,87.65
2017-10-28T21:43:51.022Z,88.99
2017-10-28T21:49:54.573Z,89.18
2017-10-28T21:55:58.070Z,88.87
2017-10-28T22:02:01.757Z,88.36
2017-10-28T22:08:05.312Z,88.38
2017-10-28T22:14:08.782Z,88.05
2017-10-28T22:20:13.221Z,88.69
2017-10-28T22:26:16.797Z,89.95
2017-10-28T22:32:20.293Z,90.87
2017-10-28T22:38:23.902Z,91.08
2017-10-28T22:44:27.376Z,91.37
2017-10-28T22:50:31.595Z,90.38
2017-10-28T22:56:35.397Z,90.44
2017-10-28T23:02:38.981Z,89.92
2017-10-28T23:08:42.571Z,89.97
2017-10-28T23:14:46.473Z,90.44
2017-10-28T23:20:50.030Z,91.38
2017-10-28T23:26:54.280Z,91.04
2017-10-28T23:32:57.759Z,91.43
2017-10-28T23:39:02.033Z,91.31
2017-10-28T23:45:06.579Z,91.63
2017-10-28T23:51:10.429Z,92.17
2017-10-28T23:57:14.406Z,92.81
